createdAt,value
2022-09-24T00:00:28.116Z,13.37
2022-09-24T00:01:28.217Z,13.25
2022-09-24T00:02:28.166Z,13.28
2022-09-24T00:03:28.122Z,13.27
2022-09-24T00:04:28.106Z,13.23
2022-09-24T00:05:28.107Z,13.27
2022-09-24T00:06:28.102Z,13.27
2022-09-24T00:07:28.100Z,13.23
2022-09-24T00:08:28.101Z,13.31
2022-09-24T00:09:28.097Z,13.25
2022-09-24T00:10:28.100Z,13.27
2022-09-24T00:11:28.094Z,13.35
2022-09-24T00:12:28.099Z,13.30
2022-09-24T00:13:28.091Z,13.31
2022-09-24T00:14:28.094Z,13.37
2022-09-24T00:15:28.087Z,13.37
2022-09-24T00:16:28.202Z,13.20
2022-09-24T00:17:28.091Z,13.20
2022-09-24T00:18:28.082Z,13.19
2022-09-24T00:19:28.109Z,13.15
2022-09-24T00:20:28.082Z,13.18
2022-09-24T00:21:28.092Z,13.12
2022-09-24T00:22:28.080Z,13.15
2022-09-24T00:23:28.075Z,13.15
2022-09-24T00:24:28.076Z,13.16
2022-09-24T00:25:28.071Z,13.09
2022-09-24T00:26:28.069Z,13.09
2022-09-24T00:27:28.066Z,13.20
2022-09-24T00:28:28.066Z,13.05
2022-09-24T00:29:28.064Z,13.09
2022-09-24T00:30:28.064Z,13.12
2022-09-24T00:31:28.098Z,13.12
2022-09-24T00:32:28.060Z,12.97
2022-09-24T00:33:28.058Z,12.95
2022-09-24T00:34:28.068Z,12.98
2022-09-24T00:35:28.077Z,12.95
2022-09-24T00:36:28.073Z,12.98
2022-09-24T00:37:28.054Z,13.00
2022-09-24T00:38:28.051Z,12.93
2022-09-24T00:39:28.051Z,12.98
2022-09-24T00:40:28.088Z,12.98
2022-09-24T00:41:28.047Z,12.95
2022-09-24T00:42:28.043Z,12.98
2022-09-24T00:43:28.042Z,12.98
2022-09-24T00:44:28.051Z,12.98
2022-09-24T00:45:28.049Z,12.98
2022-09-24T00:46:28.082Z,12.91
2022-09-24T00:47:28.033Z,12.95
2022-09-24T00:48:28.036Z,12.90
2022-09-24T00:49:28.031Z,12.91
2022-09-24T00:50:28.029Z,12.91
2022-09-24T00:51:28.043Z,12.98
2022-09-24T00:52:28.027Z,12.98
2022-09-24T00:53:28.022Z,13.01
2022-09-24T00:54:28.026Z,13.00
2022-09-24T00:55:28.019Z,13.00
2022-09-24T00:56:28.022Z,12.98
2022-09-24T00:57:28.023Z,12.95
2022-09-24T00:58:28.015Z,12.91
2022-09-24T00:59:28.014Z,13.01
2022-09-24T01:00:28.120Z,12.91
2022-09-24T01:01:28.090Z,12.93
2022-09-24T01:02:28.093Z,13.00
2022-09-24T01:03:28.004Z,12.94
2022-09-24T01:04:28.005Z,12.98
2022-09-24T01:05:28.005Z,13.08
2022-09-24T01:06:28.002Z,12.93
2022-09-24T01:07:28.021Z,13.08
2022-09-24T01:08:28.004Z,13.00
2022-09-24T01:09:27.996Z,13.11
2022-09-24T01:10:27.994Z,13.08
2022-09-24T01:11:27.990Z,13.09
2022-09-24T01:12:27.992Z,13.11
2022-09-24T01:13:27.987Z,13.08
2022-09-24T01:14:28.042Z,13.08
2022-09-24T01:15:27.989Z,13.08
2022-09-24T01:16:28.201Z,13.11
2022-09-24T01:17:27.981Z,13.09
2022-09-24T01:18:27.982Z,13.12
2022-09-24T01:19:27.980Z,13.05
2022-09-24T01:20:27.987Z,13.15
2022-09-24T01:21:27.981Z,13.09
2022-09-24T01:22:27.985Z,13.08
2022-09-24T01:23:28.157Z,13.16
2022-09-24T01:24:27.968Z,13.12
2022-09-24T01:25:27.973Z,13.15
2022-09-24T01:26:27.974Z,13.12
2022-09-24T01:27:27.963Z,13.08
2022-09-24T01:28:27.964Z,13.15
2022-09-24T01:29:27.964Z,13.15
2022-09-24T01:30:27.959Z,13.11
2022-09-24T01:31:28.066Z,13.13
2022-09-24T01:32:32.337Z,13.03
2022-09-24T01:33:27.956Z,13.08
2022-09-24T01:34:27.954Z,13.04
2022-09-24T01:35:27.951Z,13.11
2022-09-24T01:36:27.950Z,13.08
2022-09-24T01:37:27.948Z,13.09
2022-09-24T01:38:27.947Z,13.15
2022-09-24T01:39:28.365Z,13.11
2022-09-24T01:40:28.040Z,13.08
2022-09-24T01:41:27.942Z,13.04
2022-09-24T01:42:27.946Z,13.08
2022-09-24T01:43:27.934Z,13.09
2022-09-24T01:44:27.940Z,13.04
2022-09-24T01:45:27.931Z,13.08
2022-09-24T01:46:28.014Z,13.16
2022-09-24T01:47:32.189Z,13.13
2022-09-24T01:48:27.931Z,13.12
2022-09-24T01:49:27.927Z,13.16
2022-09-24T01:50:27.923Z,13.09
2022-09-24T01:51:27.926Z,13.09
2022-09-24T01:52:27.920Z,13.12
2022-09-24T01:53:27.918Z,13.15
2022-09-24T01:54:27.917Z,13.09
2022-09-24T01:55:27.937Z,13.09
2022-09-24T01:56:27.917Z,13.11
2022-09-24T01:57:27.914Z,13.16
2022-09-24T01:58:27.916Z,13.16
2022-09-24T01:59:27.912Z,13.16
2022-09-24T02:00:28.078Z,13.08
2022-09-24T02:01:27.979Z,13.11
2022-09-24T02:02:27.997Z,13.08
2022-09-24T02:03:27.904Z,13.13
2022-09-24T02:04:27.900Z,13.16
2022-09-24T02:05:27.899Z,13.13
2022-09-24T02:06:27.896Z,13.09
2022-09-24T02:07:27.894Z,13.13
2022-09-24T02:08:27.893Z,13.13
2022-09-24T02:09:27.894Z,13.13
2022-09-24T02:10:27.889Z,13.11
2022-09-24T02:11:27.932Z,13.08
2022-09-24T02:12:27.891Z,13.13
2022-09-24T02:13:27.894Z,13.16
2022-09-24T02:14:27.883Z,13.16
2022-09-24T02:15:32.259Z,13.08
2022-09-24T02:16:27.962Z,13.15
2022-09-24T02:17:27.884Z,13.16
2022-09-24T02:18:27.878Z,13.09
2022-09-24T02:19:27.883Z,13.18
2022-09-24T02:20:27.873Z,13.12
2022-09-24T02:21:27.874Z,13.13
2022-09-24T02:22:27.871Z,13.12
2022-09-24T02:23:27.869Z,13.11
2022-09-24T02:24:27.867Z,13.09
2022-09-24T02:25:27.865Z,13.16
2022-09-24T02:26:27.875Z,13.13
2022-09-24T02:27:27.879Z,13.15
2022-09-24T02:28:27.860Z,13.16
2022-09-24T02:29:27.858Z,13.15
2022-09-24T02:30:27.856Z,13.09
2022-09-24T02:31:27.934Z,13.11
2022-09-24T02:32:27.857Z,13.08
2022-09-24T02:33:27.857Z,13.15
2022-09-24T02:34:27.851Z,13.09
2022-09-24T02:35:27.852Z,13.13
2022-09-24T02:36:27.844Z,13.12
2022-09-24T02:37:27.847Z,13.11
2022-09-24T02:38:27.844Z,13.12
2022-09-24T02:39:27.841Z,13.09
2022-09-24T02:40:27.889Z,13.11
2022-09-24T02:41:27.839Z,13.23
2022-09-24T02:42:27.843Z,13.12
2022-09-24T02:43:33.826Z,13.18
2022-09-24T02:44:28.252Z,13.16
2022-09-24T02:45:27.834Z,13.20
2022-09-24T02:46:27.899Z,13.22
2022-09-24T02:47:27.827Z,13.13
2022-09-24T02:48:27.831Z,13.18
2022-09-24T02:49:27.831Z,13.11
2022-09-24T02:50:27.823Z,13.13
2022-09-24T02:51:27.828Z,13.15
2022-09-24T02:52:27.819Z,13.18
2022-09-24T02:53:27.820Z,13.16
2022-09-24T02:54:27.818Z,13.12
2022-09-24T02:55:27.816Z,13.12
2022-09-24T02:56:27.813Z,13.08
2022-09-24T02:57:27.811Z,13.12
2022-09-24T02:58:27.807Z,13.15
2022-09-24T02:59:27.804Z,13.09
2022-09-24T03:00:27.912Z,13.16
2022-09-24T03:01:27.857Z,13.11
2022-09-24T03:02:27.924Z,13.15
2022-09-24T03:03:27.799Z,13.18
2022-09-24T03:04:27.800Z,13.19
2022-09-24T03:05:27.804Z,13.13
2022-09-24T03:06:27.796Z,13.18
2022-09-24T03:07:27.798Z,13.12
2022-09-24T03:08:27.792Z,13.15
2022-09-24T03:09:27.790Z,13.11
2022-09-24T03:10:27.793Z,13.13
2022-09-24T03:11:27.786Z,13.16
2022-09-24T03:12:27.783Z,13.05
2022-09-24T03:13:27.787Z,13.08
2022-09-24T03:14:27.780Z,13.08
2022-09-24T03:15:27.779Z,13.05
2022-09-24T03:16:27.910Z,13.05
2022-09-24T03:17:27.780Z,13.19
2022-09-24T03:18:27.777Z,13.08
2022-09-24T03:19:27.781Z,13.05
2022-09-24T03:20:27.768Z,13.11
2022-09-24T03:21:27.771Z,13.09
2022-09-24T03:22:27.772Z,13.09
2022-09-24T03:23:27.767Z,13.13
2022-09-24T03:24:27.763Z,13.12
2022-09-24T03:25:27.776Z,13.08
2022-09-24T03:26:27.759Z,13.11
2022-09-24T03:27:27.760Z,13.18
2022-09-24T03:28:27.759Z,13.13
2022-09-24T03:29:27.756Z,13.18
2022-09-24T03:30:27.756Z,13.16
2022-09-24T03:31:27.850Z,13.08
2022-09-24T03:32:27.786Z,13.13
2022-09-24T03:33:27.751Z,13.22
2022-09-24T03:34:27.748Z,13.20
2022-09-24T03:35:27.749Z,13.15
2022-09-24T03:36:27.743Z,13.09
2022-09-24T03:37:27.749Z,13.12
2022-09-24T03:38:27.746Z,13.13
2022-09-24T03:39:27.741Z,13.12
2022-09-24T03:40:27.808Z,13.05
2022-09-24T03:41:27.821Z,13.13
2022-09-24T03:42:27.737Z,13.12
2022-09-24T03:43:27.737Z,13.13
2022-09-24T03:44:27.735Z,13.13
2022-09-24T03:45:27.732Z,13.12
2022-09-24T03:46:27.805Z,13.08
2022-09-24T03:47:27.727Z,13.15
2022-09-24T03:48:27.743Z,13.08
2022-09-24T03:49:27.727Z,13.08
2022-09-24T03:50:27.733Z,13.08
2022-09-24T03:51:27.730Z,13.00
2022-09-24T03:52:27.716Z,13.00
2022-09-24T03:53:27.718Z,12.97
2022-09-24T03:54:27.718Z,13.00
2022-09-24T03:55:27.713Z,12.95
2022-09-24T03:56:27.711Z,12.91
2022-09-24T03:57:27.711Z,12.91
2022-09-24T03:58:27.716Z,12.90
2022-09-24T03:59:27.723Z,12.82
2022-09-24T04:00:27.706Z,12.80
2022-09-24T04:01:27.760Z,12.80
2022-09-24T04:02:27.769Z,12.79
2022-09-24T04:03:27.702Z,12.85
2022-09-24T04:04:27.715Z,12.83
2022-09-24T04:05:27.699Z,12.76
2022-09-24T04:06:27.698Z,12.76
2022-09-24T04:07:27.694Z,12.72
2022-09-24T04:08:27.689Z,12.73
2022-09-24T04:09:27.692Z,12.68
2022-09-24T04:10:27.687Z,12.73
2022-09-24T04:11:27.690Z,12.68
2022-09-24T04:12:27.682Z,12.60
2022-09-24T04:13:27.683Z,12.60
2022-09-24T04:14:27.684Z,12.61
2022-09-24T04:15:27.684Z,12.65
2022-09-24T04:16:27.747Z,12.55
2022-09-24T04:17:27.674Z,12.61
2022-09-24T04:18:27.674Z,12.62
2022-09-24T04:19:27.671Z,12.67
2022-09-24T04:20:27.688Z,12.64
2022-09-24T04:21:27.666Z,12.72
2022-09-24T04:22:27.674Z,12.68
2022-09-24T04:23:27.661Z,12.70
2022-09-24T04:24:27.662Z,12.70
2022-09-24T04:25:27.662Z,12.70
2022-09-24T04:26:27.656Z,12.79
2022-09-24T04:27:27.660Z,12.78
2022-09-24T04:28:27.653Z,12.75
2022-09-24T04:29:27.656Z,12.76
2022-09-24T04:30:27.662Z,12.76
2022-09-24T04:31:27.777Z,12.82
2022-09-24T04:32:27.649Z,12.83
2022-09-24T04:33:27.646Z,12.73
2022-09-24T04:34:27.642Z,12.85
2022-09-24T04:35:27.645Z,12.80
2022-09-24T04:36:27.658Z,12.80
2022-09-24T04:37:27.637Z,12.85
2022-09-24T04:38:27.634Z,12.86
2022-09-24T04:39:27.636Z,12.86
2022-09-24T04:40:27.714Z,12.85
2022-09-24T04:41:27.633Z,12.79
2022-09-24T04:42:27.630Z,12.80
2022-09-24T04:43:27.626Z,12.78
2022-09-24T04:44:27.623Z,12.85
2022-09-24T04:45:27.622Z,12.70
2022-09-24T04:46:27.689Z,12.82
2022-09-24T04:47:27.628Z,12.82
2022-09-24T04:48:27.627Z,12.75
2022-09-24T04:49:27.821Z,12.82
2022-09-24T04:50:27.617Z,12.82
2022-09-24T04:51:27.612Z,12.86
2022-09-24T04:52:27.663Z,12.83
2022-09-24T04:53:27.610Z,12.80
2022-09-24T04:54:27.608Z,12.82
2022-09-24T04:55:27.605Z,12.80
2022-09-24T04:56:27.601Z,12.82
2022-09-24T04:57:27.603Z,12.85
2022-09-24T04:58:27.604Z,12.80
2022-09-24T04:59:27.620Z,12.85
2022-09-24T05:00:27.601Z,12.76
2022-09-24T05:01:27.648Z,12.76
2022-09-24T05:02:27.694Z,12.72
2022-09-24T05:03:27.594Z,12.93
2022-09-24T05:04:27.588Z,12.76
2022-09-24T05:05:27.590Z,12.78
2022-09-24T05:06:27.585Z,12.82
2022-09-24T05:07:27.589Z,12.75
2022-09-24T05:08:27.597Z,12.86
2022-09-24T05:09:27.581Z,12.91
2022-09-24T05:10:27.580Z,12.85
2022-09-24T05:11:27.577Z,12.79
2022-09-24T05:12:27.572Z,12.79
2022-09-24T05:13:27.571Z,12.80
2022-09-24T05:14:27.570Z,12.80
2022-09-24T05:15:27.570Z,12.80
2022-09-24T05:16:27.641Z,12.83
2022-09-24T05:17:27.568Z,12.80
2022-09-24T05:18:27.565Z,12.85
2022-09-24T05:19:27.562Z,12.83
2022-09-24T05:20:27.562Z,12.73
2022-09-24T05:21:27.559Z,12.80
2022-09-24T05:22:27.562Z,12.86
2022-09-24T05:23:27.554Z,12.79
2022-09-24T05:24:27.568Z,12.82
2022-09-24T05:25:27.563Z,12.73
2022-09-24T05:26:27.554Z,12.83
2022-09-24T05:27:27.547Z,12.80
2022-09-24T05:28:27.544Z,12.85
2022-09-24T05:29:27.541Z,12.73
2022-09-24T05:30:27.543Z,12.90
2022-09-24T05:31:27.622Z,12.82
2022-09-24T05:32:27.535Z,12.87
2022-09-24T05:33:27.536Z,12.79
2022-09-24T05:34:27.533Z,12.79
2022-09-24T05:35:27.529Z,12.82
2022-09-24T05:36:27.525Z,12.76
2022-09-24T05:37:27.528Z,12.78
2022-09-24T05:38:27.526Z,12.79
2022-09-24T05:39:32.802Z,12.76
2022-09-24T05:40:27.615Z,12.79
2022-09-24T05:41:27.521Z,12.80
2022-09-24T05:42:27.517Z,12.76
2022-09-24T05:43:27.517Z,12.91
2022-09-24T05:44:27.514Z,12.79
2022-09-24T05:45:27.515Z,12.82
2022-09-24T05:46:27.576Z,12.79
2022-09-24T05:47:27.511Z,12.82
2022-09-24T05:48:27.506Z,12.79
2022-09-24T05:49:27.532Z,12.80
2022-09-24T05:50:27.659Z,12.79
2022-09-24T05:51:27.524Z,12.80
2022-09-24T05:52:27.501Z,12.78
2022-09-24T05:53:27.499Z,12.79
2022-09-24T05:54:27.502Z,12.79
2022-09-24T05:55:32.070Z,12.79
2022-09-24T05:56:27.512Z,12.85
2022-09-24T05:57:27.497Z,12.80
2022-09-24T05:58:27.496Z,12.85
2022-09-24T05:59:27.490Z,12.90
2022-09-24T06:00:27.505Z,12.87
2022-09-24T06:01:27.544Z,12.87
2022-09-24T06:02:27.485Z,12.87
2022-09-24T06:03:27.503Z,12.93
2022-09-24T06:04:27.480Z,12.87
2022-09-24T06:05:27.478Z,12.91
2022-09-24T06:06:27.479Z,12.91
2022-09-24T06:07:27.474Z,12.94
2022-09-24T06:08:27.481Z,12.93
2022-09-24T06:09:27.470Z,12.87
2022-09-24T06:10:27.589Z,12.90
2022-09-24T06:11:27.468Z,12.91
2022-09-24T06:12:27.487Z,12.98
2022-09-24T06:13:27.463Z,12.98
2022-09-24T06:14:27.464Z,12.94
2022-09-24T06:15:27.569Z,12.97
2022-09-24T06:16:27.560Z,13.01
2022-09-24T06:17:27.459Z,12.93
2022-09-24T06:18:27.459Z,12.94
2022-09-24T06:19:27.454Z,13.00
2022-09-24T06:20:27.533Z,12.93
2022-09-24T06:21:27.451Z,13.01
2022-09-24T06:22:28.728Z,12.94
2022-09-24T06:23:27.444Z,12.90
2022-09-24T06:24:27.445Z,12.93
2022-09-24T06:25:27.443Z,12.97
2022-09-24T06:26:27.442Z,12.98
2022-09-24T06:27:27.437Z,13.00
2022-09-24T06:28:27.456Z,13.00
2022-09-24T06:29:27.438Z,12.97
2022-09-24T06:30:27.434Z,12.97
2022-09-24T06:31:27.497Z,12.98
2022-09-24T06:32:27.437Z,12.94
2022-09-24T06:33:27.430Z,12.94
2022-09-24T06:34:27.431Z,12.93
2022-09-24T06:35:27.425Z,12.93
2022-09-24T06:36:27.427Z,12.93
2022-09-24T06:37:27.421Z,12.94
2022-09-24T06:38:27.424Z,12.95
2022-09-24T06:39:27.417Z,12.91
2022-09-24T06:40:29.408Z,12.94
2022-09-24T06:41:27.415Z,13.01
2022-09-24T06:42:27.413Z,13.03
2022-09-24T06:43:27.414Z,13.00
2022-09-24T06:44:27.516Z,12.97
2022-09-24T06:45:27.409Z,12.97
2022-09-24T06:46:27.474Z,13.04
2022-09-24T06:47:27.406Z,12.97
2022-09-24T06:48:27.407Z,12.94
2022-09-24T06:49:32.979Z,13.00
2022-09-24T06:50:27.401Z,13.00
2022-09-24T06:51:27.596Z,12.98
2022-09-24T06:52:27.397Z,12.97
2022-09-24T06:53:27.393Z,13.01
2022-09-24T06:54:27.394Z,13.12
2022-09-24T06:55:27.390Z,13.11
2022-09-24T06:56:27.389Z,13.08
2022-09-24T06:57:29.101Z,13.04
2022-09-24T06:58:27.391Z,13.04
2022-09-24T06:59:27.387Z,13.04
2022-09-24T07:00:27.405Z,13.11
2022-09-24T07:01:27.478Z,13.13
2022-09-24T07:02:27.494Z,13.15
2022-09-24T07:03:27.375Z,13.04
2022-09-24T07:04:27.378Z,13.04
2022-09-24T07:05:27.373Z,13.04
2022-09-24T07:06:27.374Z,13.13
2022-09-24T07:07:27.368Z,13.13
2022-09-24T07:08:27.371Z,13.16
2022-09-24T07:09:27.367Z,13.11
2022-09-24T07:10:27.370Z,13.08
2022-09-24T07:11:27.364Z,13.05
2022-09-24T07:12:27.364Z,13.16
2022-09-24T07:13:27.362Z,13.04
2022-09-24T07:14:27.361Z,13.15
2022-09-24T07:15:27.356Z,13.08
2022-09-24T07:16:27.453Z,13.15
2022-09-24T07:17:32.903Z,13.12
2022-09-24T07:18:27.364Z,13.11
2022-09-24T07:19:27.349Z,13.04
2022-09-24T07:20:27.351Z,13.08
2022-09-24T07:21:27.348Z,13.12
2022-09-24T07:22:27.350Z,13.09
2022-09-24T07:23:27.344Z,12.98
2022-09-24T07:24:27.345Z,12.98
2022-09-24T07:25:27.342Z,12.91
2022-09-24T07:26:27.345Z,12.98
2022-09-24T07:27:27.337Z,13.09
2022-09-24T07:28:27.342Z,13.04
2022-09-24T07:29:27.337Z,13.01
2022-09-24T07:30:27.339Z,13.00
2022-09-24T07:31:27.382Z,13.12
2022-09-24T07:32:29.997Z,13.08
2022-09-24T07:33:27.328Z,13.08
2022-09-24T07:34:27.331Z,13.08
2022-09-24T07:35:27.326Z,13.18
2022-09-24T07:36:27.329Z,13.08
2022-09-24T07:37:27.321Z,13.15
2022-09-24T07:38:27.326Z,13.15
2022-09-24T07:39:27.318Z,13.09
2022-09-24T07:40:27.333Z,13.20
2022-09-24T07:41:27.315Z,13.22
2022-09-24T07:42:27.318Z,13.23
2022-09-24T07:43:27.311Z,13.23
2022-09-24T07:44:27.313Z,13.20
2022-09-24T07:45:27.310Z,13.28
2022-09-24T07:46:27.385Z,13.31
2022-09-24T07:47:27.306Z,13.33
2022-09-24T07:48:27.329Z,13.27
2022-09-24T07:49:27.303Z,13.25
2022-09-24T07:50:27.319Z,13.30
2022-09-24T07:51:27.710Z,13.38
2022-09-24T07:52:27.303Z,13.33
2022-09-24T07:53:27.302Z,13.39
2022-09-24T07:54:27.298Z,13.38
2022-09-24T07:55:27.294Z,13.38
2022-09-24T07:56:27.294Z,13.41
2022-09-24T07:57:27.293Z,13.41
2022-09-24T07:58:27.310Z,13.47
2022-09-24T07:59:27.290Z,13.46
2022-09-24T08:00:27.290Z,13.46
2022-09-24T08:01:27.350Z,13.49
2022-09-24T08:02:27.292Z,13.42
2022-09-24T08:03:27.343Z,13.50
2022-09-24T08:04:27.305Z,13.54
2022-09-24T08:05:27.279Z,13.50
2022-09-24T08:06:27.286Z,13.47
2022-09-24T08:07:27.276Z,13.53
2022-09-24T08:08:27.278Z,13.53
2022-09-24T08:09:27.276Z,13.47
2022-09-24T08:10:27.277Z,13.59
2022-09-24T08:11:27.272Z,13.62
2022-09-24T08:12:27.285Z,13.60
2022-09-24T08:13:28.056Z,13.59
2022-09-24T08:14:27.268Z,13.68
2022-09-24T08:15:27.265Z,13.63
2022-09-24T08:16:27.377Z,13.62
2022-09-24T08:17:27.263Z,13.65
2022-09-24T08:18:27.264Z,13.62
2022-09-24T08:19:27.258Z,13.62
2022-09-24T08:20:27.282Z,13.72
2022-09-24T08:21:27.255Z,13.74
2022-09-24T08:22:27.257Z,13.63
2022-09-24T08:23:27.255Z,13.63
2022-09-24T08:24:27.261Z,13.72
2022-09-24T08:25:27.257Z,13.79
2022-09-24T08:26:27.255Z,13.65
2022-09-24T08:27:27.247Z,13.63
2022-09-24T08:28:27.251Z,13.62
2022-09-24T08:29:27.245Z,13.63
2022-09-24T08:30:27.247Z,13.60
2022-09-24T08:31:27.280Z,13.62
2022-09-24T08:32:27.245Z,13.60
2022-09-24T08:33:27.241Z,13.56
2022-09-24T08:34:27.249Z,13.59
2022-09-24T08:35:27.239Z,13.57
2022-09-24T08:36:27.286Z,13.63
2022-09-24T08:37:27.235Z,13.67
2022-09-24T08:38:27.247Z,13.63
2022-09-24T08:39:27.235Z,13.68
2022-09-24T08:40:27.283Z,13.63
2022-09-24T08:41:27.229Z,13.62
2022-09-24T08:42:27.231Z,13.63
2022-09-24T08:43:27.226Z,13.62
2022-09-24T08:44:27.234Z,13.72
2022-09-24T08:45:27.225Z,13.74
2022-09-24T08:46:27.314Z,13.74
2022-09-24T08:47:27.227Z,13.77
2022-09-24T08:48:27.221Z,13.65
2022-09-24T08:49:27.220Z,13.62
2022-09-24T08:50:27.219Z,13.65
2022-09-24T08:51:32.739Z,13.74
2022-09-24T08:52:27.235Z,13.74
2022-09-24T08:53:27.213Z,13.78
2022-09-24T08:54:27.213Z,13.67
2022-09-24T08:55:27.210Z,13.77
2022-09-24T08:56:27.215Z,13.70
2022-09-24T08:57:27.219Z,13.68
2022-09-24T08:58:27.213Z,13.75
2022-09-24T08:59:27.204Z,13.72
2022-09-24T09:00:27.220Z,13.78
2022-09-24T09:01:27.296Z,13.74
2022-09-24T09:02:27.384Z,13.77
2022-09-24T09:03:27.202Z,13.74
2022-09-24T09:04:27.199Z,13.71
2022-09-24T09:05:27.197Z,13.75
2022-09-24T09:06:27.204Z,13.75
2022-09-24T09:07:27.194Z,13.75
2022-09-24T09:08:54.646Z,13.75
2022-09-24T09:09:27.192Z,13.87
2022-09-24T09:10:27.217Z,13.86
2022-09-24T09:11:27.191Z,13.85
2022-09-24T09:12:27.195Z,13.89
2022-09-24T09:13:27.185Z,13.90
2022-09-24T09:14:31.303Z,13.85
2022-09-24T09:15:27.185Z,13.81
2022-09-24T09:16:27.250Z,13.85
2022-09-24T09:17:27.185Z,13.79
2022-09-24T09:18:27.187Z,13.90
2022-09-24T09:19:27.181Z,13.89
2022-09-24T09:20:27.177Z,13.92
2022-09-24T09:21:27.178Z,13.85
2022-09-24T09:22:27.178Z,13.90
2022-09-24T09:23:27.172Z,13.86
2022-09-24T09:24:27.283Z,13.92
2022-09-24T09:25:27.172Z,13.81
2022-09-24T09:26:27.173Z,13.81
2022-09-24T09:27:27.166Z,13.92
2022-09-24T09:28:27.167Z,13.86
2022-09-24T09:29:27.171Z,13.97
2022-09-24T09:30:27.167Z,13.93
2022-09-24T09:31:27.222Z,13.92
2022-09-24T09:32:27.162Z,13.93
2022-09-24T09:33:27.158Z,13.95
2022-09-24T09:34:27.161Z,13.96
2022-09-24T09:35:27.173Z,14.04
2022-09-24T09:36:27.163Z,14.10
2022-09-24T09:37:27.157Z,14.10
2022-09-24T09:38:27.155Z,14.10
2022-09-24T09:39:27.167Z,14.10
2022-09-24T09:40:31.648Z,14.14
2022-09-24T09:41:27.148Z,14.11
2022-09-24T09:42:27.154Z,14.17
2022-09-24T09:43:27.157Z,14.22
2022-09-24T09:44:27.148Z,14.18
2022-09-24T09:45:28.234Z,14.26
2022-09-24T09:46:27.263Z,14.20
2022-09-24T09:47:27.144Z,14.23
2022-09-24T09:48:27.143Z,14.26
2022-09-24T09:49:27.139Z,14.30
2022-09-24T09:50:27.140Z,14.30
2022-09-24T09:51:27.286Z,14.44
2022-09-24T09:52:27.145Z,14.40
2022-09-24T09:53:27.133Z,14.41
2022-09-24T09:54:27.142Z,14.44
2022-09-24T09:55:27.133Z,14.43
2022-09-24T09:56:27.155Z,14.51
2022-09-24T09:57:27.129Z,14.48
2022-09-24T09:58:27.155Z,14.50
2022-09-24T09:59:29.688Z,14.50
2022-09-24T10:00:27.140Z,14.45
2022-09-24T10:01:27.148Z,14.51
2022-09-24T10:02:27.348Z,14.53
2022-09-24T10:03:27.212Z,14.59
2022-09-24T10:04:27.134Z,14.48
2022-09-24T10:05:27.610Z,14.50
2022-09-24T10:06:27.126Z,14.50
2022-09-24T10:07:27.139Z,14.51
2022-09-24T10:08:27.121Z,14.50
2022-09-24T10:09:27.122Z,14.60
2022-09-24T10:10:27.121Z,14.62
2022-09-24T10:11:27.113Z,14.48
2022-09-24T10:12:27.133Z,14.63
2022-09-24T10:13:27.114Z,14.59
2022-09-24T10:14:27.112Z,14.66
2022-09-24T10:15:27.108Z,14.54
2022-09-24T10:16:27.177Z,14.53
2022-09-24T10:17:27.105Z,14.53
2022-09-24T10:18:27.109Z,14.48
2022-09-24T10:19:27.105Z,14.51
2022-09-24T10:20:27.102Z,14.50
2022-09-24T10:21:28.390Z,14.50
2022-09-24T10:22:27.107Z,14.53
2022-09-24T10:23:27.102Z,14.53
2022-09-24T10:24:27.106Z,14.51
2022-09-24T10:25:27.127Z,14.54
2022-09-24T10:26:27.095Z,14.50
2022-09-24T10:27:27.097Z,14.50
2022-09-24T10:28:27.114Z,14.51
2022-09-24T10:29:27.115Z,14.48
2022-09-24T10:30:27.118Z,14.51
2022-09-24T10:31:27.175Z,14.51
2022-09-24T10:32:27.098Z,14.60
2022-09-24T10:33:27.092Z,14.62
2022-09-24T10:34:27.116Z,14.62
2022-09-24T10:35:27.093Z,14.62
2022-09-24T10:36:27.088Z,14.69
2022-09-24T10:37:27.111Z,14.60
2022-09-24T10:38:27.082Z,14.60
2022-09-24T10:39:27.085Z,14.58
2022-09-24T10:40:27.113Z,14.55
2022-09-24T10:41:27.083Z,14.55
2022-09-24T10:42:27.082Z,14.55
2022-09-24T10:43:27.082Z,14.65
2022-09-24T10:44:27.184Z,14.59
2022-09-24T10:45:27.080Z,14.62
2022-09-24T10:46:27.138Z,14.62
2022-09-24T10:47:27.078Z,14.60
2022-09-24T10:48:27.075Z,14.59
2022-09-24T10:49:27.072Z,14.69
2022-09-24T10:50:27.070Z,14.68
2022-09-24T10:51:29.338Z,14.63
2022-09-24T10:52:27.067Z,14.62
2022-09-24T10:53:27.075Z,14.58
2022-09-24T10:54:27.069Z,14.65
2022-09-24T10:55:27.066Z,14.65
2022-09-24T10:56:27.065Z,14.68
2022-09-24T10:57:27.071Z,14.59
2022-09-24T10:58:27.063Z,14.63
2022-09-24T10:59:27.065Z,14.72
2022-09-24T11:00:27.079Z,14.66
2022-09-24T11:01:27.188Z,14.69
2022-09-24T11:02:27.095Z,14.66
2022-09-24T11:03:27.058Z,14.66
2022-09-24T11:04:27.063Z,14.73
2022-09-24T11:05:27.056Z,14.77
2022-09-24T11:06:27.053Z,14.69
2022-09-24T11:07:27.052Z,14.78
2022-09-24T11:08:27.076Z,14.79
2022-09-24T11:09:27.053Z,14.79
2022-09-24T11:10:27.049Z,14.73
2022-09-24T11:11:27.050Z,14.78
2022-09-24T11:12:27.048Z,14.85
2022-09-24T11:13:27.047Z,14.89
2022-09-24T11:14:27.047Z,14.88
2022-09-24T11:15:27.045Z,14.84
2022-09-24T11:16:27.124Z,14.92
2022-09-24T11:17:27.049Z,14.85
2022-09-24T11:18:27.041Z,14.85
2022-09-24T11:19:27.044Z,14.88
2022-09-24T11:20:27.040Z,14.89
2022-09-24T11:21:27.040Z,14.88
2022-09-24T11:22:27.043Z,14.92
2022-09-24T11:23:27.040Z,14.86
2022-09-24T11:24:27.036Z,14.85
2022-09-24T11:25:27.037Z,14.96
2022-09-24T11:26:27.034Z,14.96
2022-09-24T11:27:27.041Z,15.00
2022-09-24T11:28:27.035Z,14.94
2022-09-24T11:29:27.033Z,15.10
2022-09-24T11:30:27.032Z,15.06
2022-09-24T11:31:27.081Z,14.97
2022-09-24T11:32:27.044Z,14.97
2022-09-24T11:33:27.030Z,15.04
2022-09-24T11:34:27.031Z,14.97
2022-09-24T11:35:27.024Z,15.06
2022-09-24T11:36:27.022Z,15.04
2022-09-24T11:37:27.024Z,15.10
2022-09-24T11:38:27.022Z,14.99
2022-09-24T11:39:27.023Z,15.00
2022-09-24T11:40:27.100Z,15.00
2022-09-24T11:41:27.023Z,15.07
2022-09-24T11:42:27.018Z,15.10
2022-09-24T11:43:27.020Z,15.10
2022-09-24T11:44:27.026Z,15.11
2022-09-24T11:45:27.018Z,15.07
2022-09-24T11:46:27.062Z,15.06
2022-09-24T11:47:27.014Z,15.04
2022-09-24T11:48:27.031Z,15.06
2022-09-24T11:49:27.013Z,15.02
2022-09-24T11:50:27.011Z,14.99
2022-09-24T11:51:27.011Z,15.02
2022-09-24T11:52:27.006Z,15.09
2022-09-24T11:53:27.008Z,14.97
2022-09-24T11:54:27.007Z,15.02
2022-09-24T11:55:27.004Z,14.91
2022-09-24T11:56:27.008Z,14.96
2022-09-24T11:57:27.005Z,15.02
2022-09-24T11:58:27.015Z,15.02
2022-09-24T11:59:27.003Z,15.04
2022-09-24T12:00:27.008Z,15.10
2022-09-24T12:01:27.082Z,15.04
2022-09-24T12:02:27.096Z,15.04
2022-09-24T12:03:27.043Z,15.03
2022-09-24T12:04:27.011Z,15.00
2022-09-24T12:05:27.001Z,15.06
2022-09-24T12:06:27.002Z,15.22
2022-09-24T12:07:26.998Z,15.17
2022-09-24T12:08:26.994Z,15.14
2022-09-24T12:09:26.993Z,15.04
2022-09-24T12:10:26.992Z,15.11
2022-09-24T12:11:26.992Z,15.19
2022-09-24T12:12:26.990Z,15.18
2022-09-24T12:13:26.989Z,15.10
2022-09-24T12:14:27.007Z,15.11
2022-09-24T12:15:27.001Z,15.10
2022-09-24T12:16:27.045Z,15.21
2022-09-24T12:17:26.986Z,15.28
2022-09-24T12:18:26.985Z,15.24
2022-09-24T12:19:26.985Z,15.31
2022-09-24T12:20:27.000Z,15.31
2022-09-24T12:21:26.981Z,15.21
2022-09-24T12:22:26.979Z,15.33
2022-09-24T12:23:26.979Z,15.27
2022-09-24T12:24:26.976Z,15.35
2022-09-24T12:25:26.990Z,15.27
2022-09-24T12:26:26.986Z,15.40
2022-09-24T12:27:26.986Z,15.33
2022-09-24T12:28:26.975Z,15.35
2022-09-24T12:29:26.973Z,15.36
2022-09-24T12:30:26.969Z,15.39
2022-09-24T12:31:27.017Z,15.31
2022-09-24T12:32:26.969Z,15.33
2022-09-24T12:33:26.971Z,15.25
2022-09-24T12:34:26.978Z,15.31
2022-09-24T12:35:26.970Z,15.29
2022-09-24T12:36:26.997Z,15.35
2022-09-24T12:37:26.982Z,15.29
2022-09-24T12:38:26.966Z,15.35
2022-09-24T12:39:26.965Z,15.36
2022-09-24T12:40:27.006Z,15.39
2022-09-24T12:41:26.977Z,15.37
2022-09-24T12:42:26.972Z,15.27
2022-09-24T12:43:26.988Z,15.29
2022-09-24T12:44:26.957Z,15.28
2022-09-24T12:45:26.962Z,15.22
2022-09-24T12:46:27.066Z,15.22
2022-09-24T12:47:26.963Z,15.24
2022-09-24T12:48:26.956Z,15.25
2022-09-24T12:49:26.969Z,15.29
2022-09-24T12:50:26.961Z,15.31
2022-09-24T12:51:26.956Z,15.33
2022-09-24T12:52:26.971Z,15.42